createdAt,value
2019-05-14T18:26:34.770Z,4.05
2019-05-14T18:29:04.599Z,6.00
2019-05-14T18:31:33.125Z,4.20
2019-05-14T18:34:01.537Z,4.40
2019-05-14T18:36:29.977Z,3.90
2019-05-14T18:38:58.782Z,4.33
2019-05-14T18:41:29.398Z,4.33
2019-05-14T18:46:28.537Z,4.83
2019-05-14T18:48:59.220Z,3.87
2019-05-14T18:51:28.766Z,8.38
2019-05-14T18:56:29.305Z,4.08
2019-05-14T18:58:57.357Z,4.33
2019-05-14T19:01:28.634Z,4.25
2019-05-14T19:03:58.742Z,4.15
2019-05-14T19:06:28.380Z,4.75
2019-05-14T19:08:56.270Z,4.58
2019-05-14T19:11:24.712Z,4.37
2019-05-14T19:13:53.137Z,4.17
2019-05-14T19:16:21.556Z,5.08
2019-05-14T19:18:50.192Z,5.45
2019-05-14T19:21:18.614Z,4.12
2019-05-14T19:23:49.008Z,4.75
2019-05-14T19:26:32.523Z,5.03
2019-05-14T19:31:18.384Z,4.60
2019-05-14T19:33:48.787Z,6.03
2019-05-14T19:36:18.765Z,5.45
2019-05-14T19:38:48.134Z,6.08
2019-05-14T19:41:18.856Z,5.15
2019-05-14T19:43:46.921Z,4.40
2019-05-14T19:46:15.334Z,4.90
2019-05-14T19:48:43.779Z,4.95
2019-05-14T19:51:12.192Z,6.95
2019-05-14T19:53:40.989Z,6.08
2019-05-14T19:56:09.411Z,6.47
2019-05-14T19:58:38.525Z,8.98
2019-05-14T20:01:09.137Z,6.87
2019-05-14T20:03:37.859Z,5.87
2019-05-14T20:06:08.819Z,5.97
2019-05-14T20:11:05.791Z,6.60
2019-05-14T20:13:34.251Z,7.97
2019-05-14T20:16:02.668Z,8.00
2019-05-14T20:18:31.093Z,8.65
2019-05-14T20:20:59.513Z,8.05
2019-05-14T20:23:29.119Z,7.78
2019-05-14T20:25:58.718Z,8.30
2019-05-14T20:28:27.472Z,8.53
2019-05-14T20:30:58.516Z,11.75
2019-05-14T20:33:26.177Z,9.78
2019-05-14T20:35:54.587Z,8.45
2019-05-14T20:38:23.006Z,9.15
2019-05-14T20:40:51.429Z,8.05
2019-05-14T20:43:19.861Z,7.90
2019-05-14T20:45:48.811Z,7.95
2019-05-14T20:48:18.838Z,8.83
2019-05-14T20:50:47.774Z,7.58
2019-05-14T20:53:18.553Z,8.33
2019-05-14T20:55:46.404Z,6.05
2019-05-14T20:58:14.809Z,5.83
2019-05-14T21:00:43.227Z,8.38
2019-05-14T21:03:11.740Z,4.83
2019-05-14T21:05:42.392Z,7.70
2019-05-14T21:08:13.611Z,4.53
2019-05-14T21:10:40.433Z,6.25
2019-05-14T21:13:08.909Z,5.13
2019-05-14T21:15:39.119Z,5.67
2019-05-14T21:18:08.347Z,6.67
2019-05-14T21:20:39.311Z,5.08
2019-05-14T21:23:08.995Z,5.70
2019-05-14T21:25:38.741Z,8.18
2019-05-14T21:28:09.365Z,8.45
2019-05-14T21:30:38.816Z,9.53
2019-05-14T21:33:08.431Z,9.47
2019-05-14T21:35:38.909Z,7.42
2019-05-14T21:38:09.098Z,7.37
2019-05-14T21:40:38.902Z,8.45
2019-05-14T21:43:11.027Z,7.47
2019-05-14T21:45:38.441Z,7.72
2019-05-14T21:48:08.717Z,9.37
2019-05-14T21:50:38.810Z,11.33
2019-05-14T21:53:08.382Z,12.73
2019-05-14T21:55:38.817Z,10.38
2019-05-14T21:58:09.140Z,11.27
2019-05-14T22:00:42.426Z,10.25
2019-05-14T22:03:11.177Z,9.60
2019-05-14T22:05:39.688Z,10.88
2019-05-14T22:08:08.871Z,9.70
2019-05-14T22:10:39.708Z,9.70
2019-05-14T22:13:07.745Z,10.35
2019-05-14T22:15:38.662Z,9.40
2019-05-14T22:18:16.469Z,10.33
2019-05-14T22:20:38.564Z,8.43
2019-05-14T22:23:08.942Z,8.75
2019-05-14T22:25:39.325Z,8.35
2019-05-14T22:28:14.988Z,7.20
2019-05-14T22:30:38.809Z,9.20
2019-05-14T22:33:08.560Z,10.47
2019-05-14T22:35:39.694Z,8.50
2019-05-14T22:38:07.437Z,7.97
2019-05-14T22:40:35.878Z,7.50
2019-05-14T22:43:04.359Z,7.90
2019-05-14T22:45:32.774Z,6.55
2019-05-14T22:48:01.262Z,7.17
2019-05-14T22:50:29.668Z,5.08
2019-05-14T22:52:58.631Z,6.40
2019-05-14T22:55:30.990Z,5.92
2019-05-14T22:57:59.233Z,6.40
2019-05-14T23:00:28.562Z,8.05
2019-05-14T23:02:57.348Z,5.53
2019-05-14T23:05:25.773Z,4.60
2019-05-14T23:07:54.304Z,5.72
2019-05-14T23:10:22.735Z,5.17
2019-05-14T23:12:51.144Z,7.25
2019-05-14T23:15:19.593Z,5.50
2019-05-14T23:17:48.204Z,5.67
2019-05-14T23:20:19.372Z,4.92
2019-05-14T23:22:49.235Z,9.05
2019-05-14T23:25:18.439Z,5.22
2019-05-14T23:27:48.158Z,5.20
2019-05-14T23:30:19.934Z,5.30
2019-05-14T23:32:48.978Z,5.72
2019-05-14T23:35:18.769Z,3.45
2019-05-14T23:37:48.923Z,4.58
2019-05-14T23:40:18.061Z,4.65
2019-05-14T23:42:49.046Z,6.47
2019-05-14T23:45:18.929Z,4.87
2019-05-14T23:47:49.299Z,7.60
2019-05-14T23:50:17.080Z,4.67
2019-05-14T23:52:45.656Z,3.92
2019-05-14T23:55:14.160Z,5.10
2019-05-14T23:57:42.585Z,4.12
